createdAt,value
2022-11-23T00:01:20.377Z,8.16
2022-11-23T00:03:49.912Z,8.15
2022-11-23T00:06:17.289Z,8.19
2022-11-23T00:08:43.906Z,8.18
2022-11-23T00:11:10.839Z,8.20
2022-11-23T00:13:40.089Z,8.22
2022-11-23T00:16:12.459Z,8.23
2022-11-23T00:18:38.864Z,8.22
2022-11-23T00:21:09.990Z,8.24
2022-11-23T00:23:37.157Z,8.26
2022-11-23T00:26:05.186Z,8.24
2022-11-23T00:28:31.855Z,8.25
2022-11-23T00:30:58.307Z,8.26
2022-11-23T00:33:24.733Z,8.30
2022-11-23T00:36:06.420Z,8.29
2022-11-23T00:38:33.444Z,8.31
2022-11-23T00:41:09.209Z,8.30
2022-11-23T00:43:36.300Z,8.31
2022-11-23T00:46:08.576Z,8.32
2022-11-23T00:48:35.714Z,8.34
2022-11-23T00:51:07.261Z,8.35
2022-11-23T00:53:34.231Z,8.37
2022-11-23T00:56:00.831Z,8.34
2022-11-23T00:58:27.595Z,8.35
2022-11-23T01:01:10.621Z,8.39
2022-11-23T01:03:40.485Z,8.38
2022-11-23T01:06:09.968Z,8.39
2022-11-23T01:08:37.503Z,8.38
2022-11-23T01:11:07.685Z,8.38
2022-11-23T01:13:35.035Z,8.38
2022-11-23T01:16:01.661Z,8.38
2022-11-23T01:18:28.552Z,8.39
2022-11-23T01:20:55.655Z,8.39
2022-11-23T01:23:22.123Z,8.41
2022-11-23T01:25:51.914Z,8.40
2022-11-23T01:28:20.995Z,8.38
2022-11-23T01:30:47.486Z,8.40
2022-11-23T01:33:13.923Z,8.42
2022-11-23T01:35:40.367Z,8.41
2022-11-23T01:38:06.855Z,8.42
2022-11-23T01:40:41.993Z,8.45
2022-11-23T01:43:15.312Z,8.43
2022-11-23T01:45:57.453Z,8.43
2022-11-23T01:48:27.081Z,8.41
2022-11-23T01:50:54.316Z,8.42
2022-11-23T01:53:20.931Z,8.38
2022-11-23T01:55:49.048Z,8.39
2022-11-23T01:58:20.836Z,8.39
2022-11-23T02:00:48.148Z,8.41
2022-11-23T02:03:15.041Z,8.39
2022-11-23T02:05:48.596Z,8.39
2022-11-23T02:08:20.092Z,8.39
2022-11-23T02:10:47.573Z,8.37
2022-11-23T02:13:14.956Z,8.34
2022-11-23T02:15:41.511Z,8.34
2022-11-23T02:18:15.600Z,8.32
2022-11-23T02:20:43.990Z,8.29
2022-11-23T02:23:55.051Z,8.28
2022-11-23T02:26:23.340Z,8.26
2022-11-23T02:28:55.071Z,8.27
2022-11-23T02:31:21.565Z,8.24
2022-11-23T02:33:48.074Z,8.25
2022-11-23T02:36:46.650Z,8.23
2022-11-23T02:39:36.917Z,8.22
2022-11-23T02:42:04.870Z,8.18
2022-11-23T02:45:05.139Z,8.19
2022-11-23T02:47:31.592Z,8.19
2022-11-23T02:49:58.252Z,8.18
2022-11-23T02:52:24.957Z,8.18
2022-11-23T02:54:51.436Z,8.19
2022-11-23T02:57:17.918Z,8.17
2022-11-23T02:59:44.369Z,8.20
2022-11-23T03:02:10.947Z,8.17
2022-11-23T03:04:37.445Z,8.20
2022-11-23T03:07:04.067Z,8.18
2022-11-23T03:09:31.044Z,8.21
2022-11-23T03:11:57.712Z,8.17
2022-11-23T03:14:24.404Z,8.19
2022-11-23T03:16:50.846Z,8.19
2022-11-23T03:19:17.401Z,8.16
2022-11-23T03:21:43.874Z,8.16
2022-11-23T03:24:10.315Z,8.17
2022-11-23T03:26:36.741Z,8.16
2022-11-23T03:29:03.428Z,8.14
2022-11-23T03:31:29.869Z,8.12
2022-11-23T03:33:56.375Z,8.11
2022-11-23T03:36:22.852Z,8.11
2022-11-23T03:38:49.287Z,8.10
2022-11-23T03:41:15.908Z,8.10
2022-11-23T03:43:42.357Z,8.11
2022-11-23T03:46:08.808Z,8.10
2022-11-23T03:48:35.256Z,8.09
2022-11-23T03:51:01.717Z,8.10
2022-11-23T03:53:28.184Z,8.12
2022-11-23T03:55:57.484Z,8.09
2022-11-23T03:58:24.231Z,8.10
2022-11-23T04:00:50.708Z,8.11
2022-11-23T04:03:17.542Z,8.13
2022-11-23T04:05:44.040Z,8.09
2022-11-23T04:08:10.574Z,8.13
2022-11-23T04:10:37.066Z,8.11
2022-11-23T04:13:03.569Z,8.15
2022-11-23T04:15:30.029Z,8.15
2022-11-23T04:17:56.496Z,8.13
2022-11-23T04:20:23.019Z,8.12
2022-11-23T04:22:49.446Z,8.14
2022-11-23T04:25:15.914Z,8.15
2022-11-23T04:27:42.401Z,8.15
2022-11-23T04:30:09.776Z,8.16
2022-11-23T04:32:36.192Z,8.18
2022-11-23T04:35:02.739Z,8.16
2022-11-23T04:37:29.301Z,8.16
2022-11-23T04:39:55.775Z,8.16
2022-11-23T04:42:22.213Z,8.15
2022-11-23T04:44:48.682Z,8.15
2022-11-23T04:47:15.225Z,8.14
2022-11-23T04:49:41.644Z,8.15
2022-11-23T04:52:08.141Z,8.14
2022-11-23T04:54:34.693Z,8.15
2022-11-23T04:57:01.200Z,8.14
2022-11-23T04:59:27.757Z,8.14
2022-11-23T05:01:54.216Z,8.14
2022-11-23T05:04:20.633Z,8.13
2022-11-23T05:06:47.217Z,8.11
2022-11-23T05:09:13.947Z,8.06
2022-11-23T05:11:40.482Z,8.04
2022-11-23T05:14:07.047Z,7.97
2022-11-23T05:16:33.656Z,7.92
2022-11-23T05:19:00.075Z,7.87
2022-11-23T05:21:26.576Z,7.84
2022-11-23T05:23:53.123Z,7.86
2022-11-23T05:26:19.685Z,7.87
2022-11-23T05:28:46.161Z,7.89
2022-11-23T05:31:12.699Z,7.86
2022-11-23T05:33:39.212Z,7.89
2022-11-23T05:36:06.115Z,7.91
2022-11-23T05:38:32.591Z,7.96
2022-11-23T05:40:59.024Z,7.96
2022-11-23T05:43:25.515Z,7.98
2022-11-23T05:45:51.951Z,7.99
2022-11-23T05:48:18.661Z,8.03
2022-11-23T05:50:45.088Z,8.04
2022-11-23T05:53:11.628Z,8.05
2022-11-23T05:55:38.058Z,8.07
2022-11-23T05:58:04.506Z,8.10
2022-11-23T06:00:31.012Z,8.09
2022-11-23T06:03:04.104Z,8.11
2022-11-23T06:05:31.152Z,8.08
2022-11-23T06:07:57.644Z,8.11
2022-11-23T06:10:24.205Z,8.12
2022-11-23T06:12:51.685Z,8.14
2022-11-23T06:15:18.444Z,8.13
2022-11-23T06:17:44.960Z,8.12
2022-11-23T06:20:11.625Z,8.15
2022-11-23T06:22:38.120Z,8.15
2022-11-23T06:25:04.770Z,8.15
2022-11-23T06:27:31.318Z,8.15
2022-11-23T06:29:57.747Z,8.13
2022-11-23T06:32:24.188Z,8.12
2022-11-23T06:34:50.812Z,8.13
2022-11-23T06:37:17.250Z,8.10
2022-11-23T06:39:43.808Z,8.10
2022-11-23T06:42:37.296Z,8.07
2022-11-23T06:44:56.640Z,8.05
2022-11-23T06:47:26.343Z,8.07
2022-11-23T06:49:53.252Z,8.04
2022-11-23T06:52:19.823Z,8.02
2022-11-23T06:54:46.516Z,8.02
2022-11-23T06:57:13.145Z,7.99
2022-11-23T06:59:44.520Z,7.94
2022-11-23T07:02:12.422Z,7.92
2022-11-23T07:04:38.927Z,7.90
2022-11-23T07:07:07.101Z,7.85
2022-11-23T07:09:33.838Z,7.85
2022-11-23T07:12:00.497Z,7.84
2022-11-23T07:14:26.979Z,7.79
2022-11-23T07:16:53.395Z,7.77
2022-11-23T07:19:19.814Z,7.70
2022-11-23T07:21:46.389Z,7.64
2022-11-23T07:24:12.879Z,7.56
2022-11-23T07:26:39.360Z,7.52
2022-11-23T07:29:05.767Z,7.46
2022-11-23T07:31:32.968Z,7.41
2022-11-23T07:33:59.414Z,7.39
2022-11-23T07:36:25.879Z,7.38
2022-11-23T07:38:52.321Z,7.41
2022-11-23T07:41:18.728Z,7.43
2022-11-23T07:43:45.209Z,7.45
2022-11-23T07:46:11.669Z,7.48
2022-11-23T07:48:38.176Z,7.53
2022-11-23T07:51:04.762Z,7.56
2022-11-23T07:53:31.240Z,7.58
2022-11-23T07:55:58.700Z,7.60
2022-11-23T07:58:25.649Z,7.65
2022-11-23T08:00:52.386Z,7.70
2022-11-23T08:03:27.915Z,7.71
2022-11-23T08:05:55.309Z,7.76
2022-11-23T08:08:21.884Z,7.78
2022-11-23T08:10:52.995Z,7.82
2022-11-23T08:13:21.609Z,7.86
2022-11-23T08:15:53.974Z,7.86
2022-11-23T08:18:21.897Z,7.90
2022-11-23T08:20:48.469Z,7.93
2022-11-23T08:23:14.978Z,7.95
2022-11-23T08:25:41.641Z,8.01
2022-11-23T08:28:08.168Z,8.04
2022-11-23T08:30:35.472Z,8.10
2022-11-23T08:33:09.161Z,8.15
2022-11-23T08:35:37.141Z,8.18
2022-11-23T08:38:04.405Z,8.23
2022-11-23T08:40:31.721Z,8.27
2022-11-23T08:42:58.245Z,8.30
2022-11-23T08:45:25.170Z,8.32
2022-11-23T08:47:52.975Z,8.32
2022-11-23T08:50:20.303Z,8.38
2022-11-23T08:52:47.070Z,8.44
2022-11-23T08:55:14.063Z,8.49
2022-11-23T08:57:42.026Z,8.52
2022-11-23T09:00:09.152Z,8.51
2022-11-23T09:02:35.554Z,8.55
2022-11-23T09:05:02.162Z,8.55
2022-11-23T09:07:28.696Z,8.57
2022-11-23T09:09:55.209Z,8.62
2022-11-23T09:12:21.694Z,8.61
2022-11-23T09:14:48.118Z,8.61
2022-11-23T09:17:14.533Z,8.63
2022-11-23T09:19:40.977Z,8.64
2022-11-23T09:22:07.489Z,8.67
2022-11-23T09:24:34.407Z,8.71
2022-11-23T09:27:01.069Z,8.81
2022-11-23T09:29:28.393Z,8.86
2022-11-23T09:31:54.933Z,8.91
2022-11-23T09:34:21.493Z,8.89
2022-11-23T09:36:47.956Z,8.95
2022-11-23T09:39:14.622Z,9.09
2022-11-23T09:42:17.317Z,9.23
2022-11-23T09:45:02.883Z,9.29
2022-11-23T09:47:51.574Z,9.32
2022-11-23T09:50:27.088Z,9.37
2022-11-23T09:52:53.651Z,9.36
2022-11-23T09:55:42.887Z,9.28
2022-11-23T09:58:39.601Z,9.35
2022-11-23T10:01:14.262Z,9.34
2022-11-23T10:03:47.162Z,9.24
2022-11-23T10:06:29.988Z,9.34
2022-11-23T10:09:47.774Z,9.43
2022-11-23T10:12:39.899Z,9.47
2022-11-23T10:15:14.122Z,9.44
2022-11-23T10:18:09.960Z,9.45
2022-11-23T10:20:59.553Z,9.43
2022-11-23T10:23:52.150Z,9.53
2022-11-23T10:26:21.213Z,9.62
2022-11-23T10:28:49.498Z,9.59
2022-11-23T10:31:20.636Z,9.69
2022-11-23T10:33:55.887Z,9.75
2022-11-23T10:36:22.479Z,9.72
2022-11-23T10:38:53.658Z,9.66
2022-11-23T10:41:20.110Z,9.67
2022-11-23T10:43:57.181Z,9.69
2022-11-23T10:46:31.728Z,9.70
2022-11-23T10:49:16.892Z,9.81
2022-11-23T10:51:55.352Z,9.79
2022-11-23T10:54:44.943Z,9.75
2022-11-23T10:57:31.511Z,9.58
2022-11-23T11:00:14.819Z,9.51
2022-11-23T11:02:49.257Z,9.49
2022-11-23T11:06:07.014Z,9.53
2022-11-23T11:08:20.950Z,9.75
2022-11-23T11:10:50.364Z,9.64
2022-11-23T11:13:33.005Z,9.53
2022-11-23T11:16:05.248Z,9.51
2022-11-23T11:18:36.797Z,9.50
2022-11-23T11:21:17.118Z,9.52
2022-11-23T11:23:51.630Z,9.53
2022-11-23T11:26:25.731Z,9.51
2022-11-23T11:28:54.889Z,9.50
2022-11-23T11:31:27.159Z,9.53
2022-11-23T11:34:31.624Z,9.53
2022-11-23T11:37:30.675Z,9.45
2022-11-23T11:40:07.537Z,9.45
2022-11-23T11:42:40.880Z,9.59
2022-11-23T11:45:21.904Z,9.66
2022-11-23T11:48:23.314Z,9.76
2022-11-23T11:50:55.405Z,9.75
2022-11-23T11:53:57.114Z,9.91
2022-11-23T11:56:32.303Z,10.08
2022-11-23T11:59:12.945Z,10.14
2022-11-23T12:01:54.196Z,10.25
2022-11-23T12:04:31.745Z,10.25
2022-11-23T12:07:09.571Z,10.22
2022-11-23T12:09:40.942Z,10.23
2022-11-23T12:12:16.059Z,10.19
2022-11-23T12:14:43.384Z,10.19
2022-11-23T12:17:37.117Z,10.16
2022-11-23T12:20:39.314Z,10.23
2022-11-23T12:23:32.614Z,10.29
2022-11-23T12:26:17.827Z,10.38
2022-11-23T12:29:07.487Z,10.45
2022-11-23T12:32:02.434Z,10.48
2022-11-23T12:34:58.251Z,10.59
2022-11-23T12:37:46.734Z,10.68
2022-11-23T12:40:31.393Z,10.71
2022-11-23T12:43:06.139Z,10.62
2022-11-23T12:46:01.501Z,10.61
2022-11-23T12:49:02.944Z,10.58
2022-11-23T12:51:40.854Z,10.60
2022-11-23T12:54:10.028Z,10.51
2022-11-23T12:57:00.328Z,10.46
2022-11-23T12:59:39.761Z,10.37
2022-11-23T13:02:23.835Z,10.37
2022-11-23T13:05:17.721Z,10.36
2022-11-23T13:08:22.874Z,10.31
2022-11-23T13:10:58.313Z,10.28
2022-11-23T13:13:43.843Z,10.24
2022-11-23T13:16:48.036Z,10.18
2022-11-23T13:19:40.623Z,10.13
2022-11-23T13:22:14.452Z,10.07
2022-11-23T13:25:00.928Z,10.03
2022-11-23T13:27:31.434Z,10.03
2022-11-23T13:30:01.023Z,10.05
2022-11-23T13:32:42.325Z,10.04
2022-11-23T13:35:17.662Z,10.02
2022-11-23T13:37:56.291Z,10.03
2022-11-23T13:40:28.682Z,9.99
2022-11-23T13:43:06.497Z,9.94
2022-11-23T13:45:36.581Z,9.96
2022-11-23T13:48:04.770Z,9.91
2022-11-23T13:50:32.477Z,9.94
2022-11-23T13:53:00.409Z,9.89
2022-11-23T13:55:37.551Z,9.83
2022-11-23T13:58:22.948Z,9.66
2022-11-23T14:00:49.712Z,9.59
2022-11-23T14:03:51.031Z,9.46
2022-11-23T14:06:47.903Z,9.29
2022-11-23T14:09:20.134Z,9.15
2022-11-23T14:12:11.476Z,9.05
2022-11-23T14:14:43.697Z,9.00
2022-11-23T14:17:34.947Z,8.94
2022-11-23T14:20:19.467Z,8.90
2022-11-23T14:23:27.585Z,8.82
2022-11-23T14:26:02.919Z,8.77
2022-11-23T14:28:53.904Z,8.70
2022-11-23T14:31:46.374Z,8.61
2022-11-23T14:34:31.848Z,8.59
2022-11-23T14:37:17.492Z,8.53
2022-11-23T14:40:13.516Z,8.50
2022-11-23T14:42:44.404Z,8.46
2022-11-23T14:45:15.422Z,8.46
2022-11-23T14:47:42.159Z,8.48
2022-11-23T14:50:41.034Z,8.45
2022-11-23T14:53:11.014Z,8.47
2022-11-23T14:55:37.618Z,8.41
2022-11-23T14:58:06.185Z,8.39
2022-11-23T15:00:41.446Z,8.35
2022-11-23T15:03:48.951Z,8.38
2022-11-23T15:06:17.254Z,8.33
2022-11-23T15:09:13.062Z,8.30
2022-11-23T15:11:39.570Z,8.29
2022-11-23T15:14:26.697Z,8.24
2022-11-23T15:16:53.262Z,8.23
2022-11-23T15:19:28.159Z,8.22
2022-11-23T15:21:56.604Z,8.21
2022-11-23T15:24:25.438Z,8.18
2022-11-23T15:26:52.934Z,8.15
2022-11-23T15:29:33.468Z,8.17
2022-11-23T15:32:28.625Z,8.17
2022-11-23T15:34:47.859Z,8.18
2022-11-23T15:37:14.859Z,8.17
2022-11-23T15:39:41.860Z,8.18
2022-11-23T15:42:15.574Z,8.15
2022-11-23T15:44:44.971Z,8.16
2022-11-23T15:47:28.019Z,8.16
2022-11-23T15:50:08.431Z,8.14
2022-11-23T15:52:37.633Z,8.08
2022-11-23T15:55:13.082Z,8.12
2022-11-23T15:57:40.557Z,8.10
2022-11-23T16:00:12.535Z,8.09
2022-11-23T16:02:39.314Z,8.14
2022-11-23T16:05:19.579Z,8.14
2022-11-23T16:08:02.302Z,8.13
2022-11-23T16:10:30.833Z,8.12
2022-11-23T16:13:02.734Z,8.11
2022-11-23T16:15:40.733Z,8.09
2022-11-23T16:18:28.036Z,8.12
2022-11-23T16:20:58.837Z,8.12
2022-11-23T16:23:31.032Z,8.12
2022-11-23T16:26:01.210Z,8.07
2022-11-23T16:28:32.121Z,8.10
2022-11-23T16:30:59.506Z,8.11
2022-11-23T16:33:26.617Z,8.09
2022-11-23T16:35:53.363Z,8.09
2022-11-23T16:38:20.281Z,8.10
2022-11-23T16:40:48.245Z,8.10
2022-11-23T16:43:16.477Z,8.14
2022-11-23T16:45:46.796Z,8.12
2022-11-23T16:48:25.352Z,8.11
2022-11-23T16:50:56.008Z,8.10
2022-11-23T16:53:22.945Z,8.13
2022-11-23T16:55:53.612Z,8.12
2022-11-23T16:58:20.601Z,8.15
2022-11-23T17:00:49.386Z,8.13
2022-11-23T17:03:17.004Z,8.14
2022-11-23T17:05:43.762Z,8.15
2022-11-23T17:08:10.458Z,8.15
2022-11-23T17:10:38.256Z,8.16
2022-11-23T17:13:11.414Z,8.18
2022-11-23T17:15:38.114Z,8.18
2022-11-23T17:18:04.740Z,8.19
2022-11-23T17:20:31.251Z,8.18
2022-11-23T17:23:01.028Z,8.19
2022-11-23T17:25:27.686Z,8.16
2022-11-23T17:27:54.148Z,8.19
2022-11-23T17:30:22.184Z,8.22
2022-11-23T17:32:49.538Z,8.24
2022-11-23T17:35:16.887Z,8.22
2022-11-23T17:37:44.067Z,8.22
2022-11-23T17:40:16.068Z,8.21
2022-11-23T17:42:43.191Z,8.24
2022-11-23T17:45:10.953Z,8.24
2022-11-23T17:47:38.412Z,8.24
2022-11-23T17:50:09.444Z,8.24
2022-11-23T17:52:35.911Z,8.22
2022-11-23T17:55:02.362Z,8.22
2022-11-23T17:57:28.801Z,8.20
2022-11-23T17:59:58.218Z,8.19
2022-11-23T18:02:27.176Z,8.19
2022-11-23T18:04:53.622Z,8.19
2022-11-23T18:07:20.150Z,8.17
2022-11-23T18:09:46.670Z,8.18
2022-11-23T18:12:13.568Z,8.17
2022-11-23T18:14:40.055Z,8.18
2022-11-23T18:17:06.514Z,8.17
2022-11-23T18:19:33.246Z,8.17
2022-11-23T18:21:59.876Z,8.20
2022-11-23T18:24:26.357Z,8.17
2022-11-23T18:26:52.933Z,8.15
2022-11-23T18:29:19.436Z,8.12
2022-11-23T18:31:45.888Z,8.05
2022-11-23T18:34:12.392Z,8.07
2022-11-23T18:36:38.824Z,8.02
2022-11-23T18:39:06.347Z,7.97
2022-11-23T18:41:32.857Z,7.94
2022-11-23T18:43:59.300Z,7.92
2022-11-23T18:46:25.869Z,7.88
2022-11-23T18:48:53.488Z,7.86
2022-11-23T18:51:19.952Z,7.83
2022-11-23T18:53:47.798Z,7.81
2022-11-23T18:56:14.588Z,7.76
2022-11-23T18:58:43.125Z,7.70
2022-11-23T19:01:20.586Z,7.69
2022-11-23T19:03:49.415Z,7.66
2022-11-23T19:06:18.357Z,7.66
2022-11-23T19:08:47.298Z,7.61
2022-11-23T19:11:19.997Z,7.57
2022-11-23T19:13:54.183Z,7.53
2022-11-23T19:16:23.390Z,7.53
2022-11-23T19:18:55.116Z,7.52
2022-11-23T19:21:23.373Z,7.47
2022-11-23T19:23:52.026Z,7.46
2022-11-23T19:26:19.468Z,7.42
2022-11-23T19:28:46.604Z,7.41
2022-11-23T19:31:15.851Z,7.40
2022-11-23T19:33:43.640Z,7.42
2022-11-23T19:36:13.037Z,7.38
2022-11-23T19:38:39.578Z,7.39
2022-11-23T19:41:06.395Z,7.36
2022-11-23T19:43:33.267Z,7.35
2022-11-23T19:46:01.974Z,7.36
2022-11-23T19:48:33.170Z,7.35
2022-11-23T19:51:05.560Z,7.32
2022-11-23T19:53:36.737Z,7.32
2022-11-23T19:56:09.657Z,7.28
2022-11-23T19:58:36.469Z,7.26
2022-11-23T20:01:05.995Z,7.23
2022-11-23T20:03:36.641Z,7.19
2022-11-23T20:06:06.006Z,7.16
2022-11-23T20:08:32.493Z,7.16
2022-11-23T20:10:59.008Z,7.16
2022-11-23T20:13:25.469Z,7.19
2022-11-23T20:15:51.964Z,7.21
2022-11-23T20:18:19.090Z,7.17
2022-11-23T20:20:47.470Z,7.17
2022-11-23T20:23:14.855Z,7.14
2022-11-23T20:25:42.193Z,7.12
2022-11-23T20:28:13.540Z,7.10
2022-11-23T20:30:42.480Z,7.08
2022-11-23T20:33:10.261Z,7.03
2022-11-23T20:35:36.821Z,7.01
2022-11-23T20:38:03.830Z,6.97
2022-11-23T20:40:30.614Z,6.97
2022-11-23T20:42:57.989Z,6.92
2022-11-23T20:45:28.307Z,6.89
2022-11-23T20:47:55.262Z,6.85
2022-11-23T20:50:26.800Z,6.82
2022-11-23T20:52:54.895Z,6.80
2022-11-23T20:55:24.673Z,6.80
2022-11-23T20:57:52.343Z,6.80
2022-11-23T21:00:21.395Z,6.78
2022-11-23T21:02:52.225Z,6.80
2022-11-23T21:05:19.819Z,6.78
2022-11-23T21:07:47.577Z,6.80
2022-11-23T21:10:34.944Z,6.85
2022-11-23T21:13:20.719Z,6.91
2022-11-23T21:15:47.281Z,6.90
2022-11-23T21:18:14.502Z,6.98
2022-11-23T21:20:43.251Z,7.04
2022-11-23T21:23:09.768Z,7.05
2022-11-23T21:25:36.278Z,7.05
2022-11-23T21:28:03.382Z,7.03
2022-11-23T21:30:30.882Z,7.02
2022-11-23T21:32:57.536Z,7.00
2022-11-23T21:35:24.089Z,6.96
2022-11-23T21:37:50.503Z,6.96
2022-11-23T21:40:16.999Z,6.90
2022-11-23T21:42:44.709Z,6.90
2022-11-23T21:45:11.323Z,6.93
2022-11-23T21:47:37.828Z,6.93
2022-11-23T21:50:04.788Z,6.95
2022-11-23T21:52:31.306Z,6.97
2022-11-23T21:54:57.857Z,7.01
2022-11-23T21:57:24.423Z,7.08
2022-11-23T21:59:50.971Z,7.12
2022-11-23T22:02:17.511Z,7.12
2022-11-23T22:04:43.971Z,7.14
2022-11-23T22:07:10.437Z,7.20
2022-11-23T22:09:37.961Z,7.26
2022-11-23T22:12:04.616Z,7.28
2022-11-23T22:14:31.381Z,7.29
2022-11-23T22:16:58.240Z,7.30
2022-11-23T22:19:24.675Z,7.27
2022-11-23T22:21:51.130Z,7.32
2022-11-23T22:24:19.361Z,7.31
2022-11-23T22:26:47.555Z,7.33
2022-11-23T22:29:14.876Z,7.31
2022-11-23T22:31:41.632Z,7.33
2022-11-23T22:34:11.282Z,7.33
2022-11-23T22:36:37.926Z,7.34
2022-11-23T22:39:06.489Z,7.36
2022-11-23T22:41:36.685Z,7.35
2022-11-23T22:44:06.057Z,7.32
2022-11-23T22:46:32.700Z,7.34
2022-11-23T22:48:59.464Z,7.40
2022-11-23T22:51:28.592Z,7.41
2022-11-23T22:53:59.691Z,7.42
2022-11-23T22:56:27.389Z,7.48
2022-11-23T22:58:53.889Z,7.50
2022-11-23T23:01:23.270Z,7.55
2022-11-23T23:03:58.051Z,7.62
2022-11-23T23:06:27.240Z,7.64
2022-11-23T23:08:58.641Z,7.72
2022-11-23T23:11:27.056Z,7.79
2022-11-23T23:13:54.116Z,7.76
2022-11-23T23:16:20.801Z,7.80
2022-11-23T23:18:47.362Z,7.77
2022-11-23T23:21:19.165Z,7.79
2022-11-23T23:23:50.814Z,7.77
2022-11-23T23:26:19.251Z,7.77
2022-11-23T23:28:46.440Z,7.76
2022-11-23T23:31:16.110Z,7.71
2022-11-23T23:33:43.412Z,7.71
2022-11-23T23:36:15.825Z,7.72
2022-11-23T23:38:42.966Z,7.71
2022-11-23T23:41:10.629Z,7.74
2022-11-23T23:43:37.324Z,7.75
2022-11-23T23:46:09.155Z,7.71
2022-11-23T23:48:37.923Z,7.74
2022-11-23T23:51:06.203Z,7.73
2022-11-23T23:53:34.334Z,7.73
2022-11-23T23:56:03.937Z,7.75
2022-11-23T23:58:31.248Z,7.74
